This is the latest recevied weather packets stored in our database for station/object KD0ISH. If no packets are shown the sender has not sent any weather packets the latest 10 day(s).
| Time | Temp. | Humidity | Pressure | Rain* | Wind** | Luminosity | Snow |
|---|---|---|---|---|---|---|---|
| 1777767687 | 15° C | 49% | 1020.4 hPa | 0 mm | - | 19 W/m² | - |
| 1777767383 | 15.56° C | 48% | 1020.6 hPa | 0 mm | - | 19 W/m² | - |
| 1777767081 | 15.56° C | 47% | 1020.6 hPa | 0 mm | - | 21 W/m² | - |
| 1777766778 | 15.56° C | 48% | 1020.5 hPa | 0 mm | - | 23 W/m² | - |
| 1777766475 | 16.11° C | 46% | 1020.4 hPa | 0 mm | - | 26 W/m² | - |
| 1777766172 | 16.11° C | 46% | 1020.6 hPa | 0 mm | - | 28 W/m² | - |
| 1777765870 | 16.11° C | 47% | 1020.5 hPa | 0 mm | - | 31 W/m² | - |
| 1777765565 | 16.67° C | 48% | 1020.7 hPa | 0 mm | - | 33 W/m² | - |
| 1777765263 | 16.67° C | 45% | 1020.3 hPa | 0 mm | - | 37 W/m² | - |
| 1777764963 | 17.22° C | 46% | 1020.5 hPa | 0 mm | - | 40 W/m² | - |
| 1777764661 | 17.78° C | 44% | 1020.4 hPa | 0 mm | - | 97 W/m² | - |
| 1777764357 | 17.78° C | 44% | 1020.5 hPa | 0 mm | - | 134 W/m² | - |
| 1777764054 | 18.33° C | 42% | 1020.6 hPa | 0 mm | - | 143 W/m² | - |
| 1777763751 | 18.33° C | 41% | 1020.5 hPa | 0 mm | - | 154 W/m² | - |
| 1777763449 | 17.78° C | 42% | 1020.6 hPa | 0 mm | - | 170 W/m² | - |
| 1777763147 | 16.67° C | 44% | 1020.5 hPa | 0 mm | - | 185 W/m² | - |
| 1777762845 | 16.67° C | 43% | 1020.7 hPa | 0 mm | - | 193 W/m² | - |
| 1777762540 | 17.22° C | 44% | 1020.6 hPa | 0 mm | - | 208 W/m² | - |
| 1777762238 | 17.78° C | 43% | 1020.6 hPa | 0 mm | - | 231 W/m² | - |
| 1777761934 | 18.33° C | 41% | 1020.6 hPa | 0 mm | - | 237 W/m² | - |
| 1777761631 | 17.78° C | 44% | 1020.5 hPa | 0 mm | - | 265 W/m² | - |
| 1777761329 | 18.33° C | 44% | 1020.7 hPa | 0 mm | - | 274 W/m² | - |
| 1777761027 | 18.89° C | 42% | 1020.9 hPa | 0 mm | - | 290 W/m² | - |
| 1777760724 | 18.89° C | 40% | 1020.6 hPa | 0 mm | - | 299 W/m² | - |
| 1777760420 | 18.89° C | 42% | 1020.8 hPa | 0 mm | - | 303 W/m² | - |
* Rain latest hour (hover to see other rain measurements)
** Current wind speed in m/s (hover to see current wind gust speed)